sensor_id;sensor_type;location;lat;lon;timestamp;temperature;humidity
29295;DHT22;16305;48.566;8.846;2022-10-16T00:00:34;14.10;99.90
29295;DHT22;16305;48.566;8.846;2022-10-16T00:03:01;14.10;99.90
29295;DHT22;16305;48.566;8.846;2022-10-16T00:05:26;14.10;99.90
29295;DHT22;16305;48.566;8.846;2022-10-16T00:07:52;14.00;99.90
29295;DHT22;16305;48.566;8.846;2022-10-16T00:10:18;14.10;99.90
29295;DHT22;16305;48.566;8.846;2022-10-16T00:12:43;14.00;99.90
29295;DHT22;16305;48.566;8.846;2022-10-16T00:15:09;14.00;99.90
29295;DHT22;16305;48.566;8.846;2022-10-16T00:17:35;14.00;99.90
29295;DHT22;16305;48.566;8.846;2022-10-16T00:20:00;13.90;99.90
29295;DHT22;16305;48.566;8.846;2022-10-16T00:22:26;14.00;99.90
29295;DHT22;16305;48.566;8.846;2022-10-16T00:24:51;13.90;99.90
29295;DHT22;16305;48.566;8.846;2022-10-16T00:27:17;13.90;99.90
29295;DHT22;16305;48.566;8.846;2022-10-16T00:29:43;13.90;99.90
29295;DHT22;16305;48.566;8.846;2022-10-16T00:32:08;13.80;99.90
29295;DHT22;16305;48.566;8.846;2022-10-16T00:34:34;13.80;99.90
29295;DHT22;16305;48.566;8.846;2022-10-16T00:37:00;13.80;99.90
29295;DHT22;16305;48.566;8.846;2022-10-16T00:39:25;13.80;99.90
29295;DHT22;16305;48.566;8.846;2022-10-16T00:41:51;13.80;99.90
29295;DHT22;16305;48.566;8.846;2022-10-16T00:47:30;13.80;99.90
29295;DHT22;16305;48.566;8.846;2022-10-16T00:50:16;13.70;99.90
29295;DHT22;16305;48.566;8.846;2022-10-16T00:52:46;13.70;99.90
29295;DHT22;16305;48.566;8.846;2022-10-16T00:55:12;13.70;99.90
29295;DHT22;16305;48.566;8.846;2022-10-16T00:57:39;13.70;99.90
29295;DHT22;16305;48.566;8.846;2022-10-16T01:00:07;13.70;99.90
29295;DHT22;16305;48.566;8.846;2022-10-16T01:02:32;13.70;99.90
29295;DHT22;16305;48.566;8.846;2022-10-16T01:04:58;13.70;99.90
29295;DHT22;16305;48.566;8.846;2022-10-16T01:10:07;13.80;99.90
29295;DHT22;16305;48.566;8.846;2022-10-16T01:15:42;13.70;99.90
29295;DHT22;16305;48.566;8.846;2022-10-16T01:20:54;13.70;99.90
29295;DHT22;16305;48.566;8.846;2022-10-16T01:26:31;13.80;99.90
29295;DHT22;16305;48.566;8.846;2022-10-16T01:29:20;13.80;99.90
29295;DHT22;16305;48.566;8.846;2022-10-16T01:31:54;13.80;99.90
29295;DHT22;16305;48.566;8.846;2022-10-16T01:34:28;13.80;99.90
29295;DHT22;16305;48.566;8.846;2022-10-16T01:37:11;13.80;99.90
29295;DHT22;16305;48.566;8.846;2022-10-16T01:39:39;13.80;99.90
29295;DHT22;16305;48.566;8.846;2022-10-16T01:42:16;13.80;99.90
29295;DHT22;16305;48.566;8.846;2022-10-16T01:44:46;13.80;99.90
29295;DHT22;16305;48.566;8.846;2022-10-16T01:47:13;13.90;99.90
29295;DHT22;16305;48.566;8.846;2022-10-16T01:49:40;13.90;99.90
29295;DHT22;16305;48.566;8.846;2022-10-16T01:52:13;13.90;99.90
29295;DHT22;16305;48.566;8.846;2022-10-16T01:54:41;13.90;99.90
29295;DHT22;16305;48.566;8.846;2022-10-16T01:57:08;13.90;99.90
29295;DHT22;16305;48.566;8.846;2022-10-16T01:59:37;13.80;99.90
29295;DHT22;16305;48.566;8.846;2022-10-16T02:02:06;13.80;99.90
29295;DHT22;16305;48.566;8.846;2022-10-16T02:04:36;13.80;99.90
29295;DHT22;16305;48.566;8.846;2022-10-16T02:07:03;13.80;99.90
29295;DHT22;16305;48.566;8.846;2022-10-16T02:09:30;13.90;99.90
29295;DHT22;16305;48.566;8.846;2022-10-16T02:11:59;13.90;99.90
29295;DHT22;16305;48.566;8.846;2022-10-16T02:14:28;14.00;99.90
29295;DHT22;16305;48.566;8.846;2022-10-16T02:16:53;14.00;99.90
29295;DHT22;16305;48.566;8.846;2022-10-16T02:19:20;14.00;99.90
29295;DHT22;16305;48.566;8.846;2022-10-16T02:21:58;14.00;99.90
29295;DHT22;16305;48.566;8.846;2022-10-16T02:32:39;13.90;99.90
29295;DHT22;16305;48.566;8.846;2022-10-16T02:35:07;13.90;99.90
29295;DHT22;16305;48.566;8.846;2022-10-16T02:37:33;13.80;99.90
29295;DHT22;16305;48.566;8.846;2022-10-16T02:39:59;13.80;99.90
29295;DHT22;16305;48.566;8.846;2022-10-16T02:42:35;13.80;99.90
29295;DHT22;16305;48.566;8.846;2022-10-16T02:45:01;13.90;99.90
29295;DHT22;16305;48.566;8.846;2022-10-16T02:47:26;13.90;99.90
29295;DHT22;16305;48.566;8.846;2022-10-16T02:49:52;13.90;99.90
29295;DHT22;16305;48.566;8.846;2022-10-16T02:52:17;13.90;99.90
29295;DHT22;16305;48.566;8.846;2022-10-16T02:54:43;14.00;99.90
29295;DHT22;16305;48.566;8.846;2022-10-16T02:57:09;14.00;99.90
29295;DHT22;16305;48.566;8.846;2022-10-16T02:59:34;13.90;99.90
29295;DHT22;16305;48.566;8.846;2022-10-16T03:02:00;14.00;99.90
29295;DHT22;16305;48.566;8.846;2022-10-16T03:04:25;14.00;99.90
29295;DHT22;16305;48.566;8.846;2022-10-16T03:06:51;14.00;99.90
29295;DHT22;16305;48.566;8.846;2022-10-16T03:09:16;14.00;99.90
29295;DHT22;16305;48.566;8.846;2022-10-16T03:11:42;13.90;99.90
29295;DHT22;16305;48.566;8.846;2022-10-16T03:14:07;13.80;99.90
29295;DHT22;16305;48.566;8.846;2022-10-16T03:16:33;13.70;99.90
29295;DHT22;16305;48.566;8.846;2022-10-16T03:18:58;13.70;99.90
29295;DHT22;16305;48.566;8.846;2022-10-16T03:21:24;13.60;99.90
29295;DHT22;16305;48.566;8.846;2022-10-16T03:23:50;13.60;99.90
29295;DHT22;16305;48.566;8.846;2022-10-16T03:26:15;13.60;99.90
29295;DHT22;16305;48.566;8.846;2022-10-16T03:28:41;13.50;99.90
29295;DHT22;16305;48.566;8.846;2022-10-16T03:31:06;13.40;99.90
29295;DHT22;16305;48.566;8.846;2022-10-16T03:33:33;13.50;99.90
29295;DHT22;16305;48.566;8.846;2022-10-16T03:35:59;13.40;99.90
29295;DHT22;16305;48.566;8.846;2022-10-16T03:38:25;13.40;99.90
29295;DHT22;16305;48.566;8.846;2022-10-16T03:40:51;13.40;99.90
29295;DHT22;16305;48.566;8.846;2022-10-16T03:43:16;13.60;99.90
29295;DHT22;16305;48.566;8.846;2022-10-16T03:45:42;13.70;99.90
29295;DHT22;16305;48.566;8.846;2022-10-16T03:48:07;13.80;99.90
29295;DHT22;16305;48.566;8.846;2022-10-16T03:50:33;13.90;99.90
29295;DHT22;16305;48.566;8.846;2022-10-16T03:52:58;14.00;99.90
29295;DHT22;16305;48.566;8.846;2022-10-16T03:55:24;14.00;99.90
29295;DHT22;16305;48.566;8.846;2022-10-16T03:57:49;14.10;99.90
29295;DHT22;16305;48.566;8.846;2022-10-16T04:00:15;14.20;99.90
29295;DHT22;16305;48.566;8.846;2022-10-16T04:02:40;14.10;99.90
29295;DHT22;16305;48.566;8.846;2022-10-16T04:05:06;14.10;99.90
29295;DHT22;16305;48.566;8.846;2022-10-16T04:07:32;14.10;99.90
29295;DHT22;16305;48.566;8.846;2022-10-16T04:09:57;14.20;99.90
29295;DHT22;16305;48.566;8.846;2022-10-16T04:12:25;14.20;99.90
29295;DHT22;16305;48.566;8.846;2022-10-16T04:14:51;14.20;99.90
29295;DHT22;16305;48.566;8.846;2022-10-16T04:17:16;14.10;99.90
29295;DHT22;16305;48.566;8.846;2022-10-16T04:19:42;14.20;99.90
29295;DHT22;16305;48.566;8.846;2022-10-16T04:22:08;14.20;99.90
29295;DHT22;16305;48.566;8.846;2022-10-16T04:24:33;14.20;99.90
29295;DHT22;16305;48.566;8.846;2022-10-16T04:26:59;14.20;99.90
29295;DHT22;16305;48.566;8.846;2022-10-16T04:29:24;14.20;99.90
29295;DHT22;16305;48.566;8.846;2022-10-16T04:31:50;14.20;99.90
29295;DHT22;16305;48.566;8.846;2022-10-16T04:34:15;14.20;99.90
29295;DHT22;16305;48.566;8.846;2022-10-16T04:36:41;14.20;99.90
29295;DHT22;16305;48.566;8.846;2022-10-16T04:39:06;14.10;99.90
29295;DHT22;16305;48.566;8.846;2022-10-16T04:41:32;14.20;99.90
29295;DHT22;16305;48.566;8.846;2022-10-16T04:43:57;14.10;99.90
29295;DHT22;16305;48.566;8.846;2022-10-16T04:46:23;14.10;99.90
29295;DHT22;16305;48.566;8.846;2022-10-16T04:48:48;14.10;99.90
29295;DHT22;16305;48.566;8.846;2022-10-16T04:51:14;14.00;99.90
29295;DHT22;16305;48.566;8.846;2022-10-16T04:53:40;14.00;99.90
29295;DHT22;16305;48.566;8.846;2022-10-16T04:56:05;14.00;99.90
29295;DHT22;16305;48.566;8.846;2022-10-16T04:58:31;14.00;99.90
29295;DHT22;16305;48.566;8.846;2022-10-16T05:00:56;13.90;99.90
29295;DHT22;16305;48.566;8.846;2022-10-16T05:03:22;14.00;99.90
29295;DHT22;16305;48.566;8.846;2022-10-16T05:05:47;13.90;99.90
29295;DHT22;16305;48.566;8.846;2022-10-16T05:08:14;14.00;99.90
29295;DHT22;16305;48.566;8.846;2022-10-16T05:10:41;14.00;99.90
29295;DHT22;16305;48.566;8.846;2022-10-16T05:13:07;14.00;99.90
29295;DHT22;16305;48.566;8.846;2022-10-16T05:15:33;14.00;99.90
29295;DHT22;16305;48.566;8.846;2022-10-16T05:17:59;14.00;99.90
29295;DHT22;16305;48.566;8.846;2022-10-16T05:20:25;14.00;99.90
29295;DHT22;16305;48.566;8.846;2022-10-16T05:22:50;14.00;99.90
29295;DHT22;16305;48.566;8.846;2022-10-16T05:25:16;14.00;99.90
29295;DHT22;16305;48.566;8.846;2022-10-16T05:27:41;14.10;99.90
29295;DHT22;16305;48.566;8.846;2022-10-16T05:30:07;14.10;99.90
29295;DHT22;16305;48.566;8.846;2022-10-16T05:32:33;14.00;99.90
29295;DHT22;16305;48.566;8.846;2022-10-16T05:34:59;14.00;99.90
29295;DHT22;16305;48.566;8.846;2022-10-16T05:37:25;14.00;99.90
29295;DHT22;16305;48.566;8.846;2022-10-16T05:39:52;14.00;99.90
29295;DHT22;16305;48.566;8.846;2022-10-16T05:42:17;14.00;99.90
29295;DHT22;16305;48.566;8.846;2022-10-16T05:44:43;13.90;99.90
29295;DHT22;16305;48.566;8.846;2022-10-16T05:47:09;13.90;99.90
29295;DHT22;16305;48.566;8.846;2022-10-16T05:49:36;13.90;99.90
29295;DHT22;16305;48.566;8.846;2022-10-16T05:52:01;14.00;99.90
29295;DHT22;16305;48.566;8.846;2022-10-16T05:54:27;14.00;99.90
29295;DHT22;16305;48.566;8.846;2022-10-16T05:56:52;14.10;99.90
29295;DHT22;16305;48.566;8.846;2022-10-16T05:59:18;14.20;99.90
29295;DHT22;16305;48.566;8.846;2022-10-16T06:01:43;14.10;99.90
29295;DHT22;16305;48.566;8.846;2022-10-16T06:04:09;14.10;99.90
29295;DHT22;16305;48.566;8.846;2022-10-16T06:06:35;14.20;99.90
29295;DHT22;16305;48.566;8.846;2022-10-16T06:09:02;14.20;99.90
29295;DHT22;16305;48.566;8.846;2022-10-16T06:11:30;14.20;99.90
29295;DHT22;16305;48.566;8.846;2022-10-16T06:13:58;14.20;99.90
29295;DHT22;16305;48.566;8.846;2022-10-16T06:16:27;14.30;99.90
29295;DHT22;16305;48.566;8.846;2022-10-16T06:18:54;14.30;99.90
29295;DHT22;16305;48.566;8.846;2022-10-16T06:21:22;14.40;99.90
29295;DHT22;16305;48.566;8.846;2022-10-16T06:23:50;14.50;99.90
29295;DHT22;16305;48.566;8.846;2022-10-16T06:26:18;14.50;99.90
29295;DHT22;16305;48.566;8.846;2022-10-16T06:28:44;14.40;99.90
29295;DHT22;16305;48.566;8.846;2022-10-16T06:31:10;14.40;99.90
29295;DHT22;16305;48.566;8.846;2022-10-16T06:33:36;14.40;99.90
29295;DHT22;16305;48.566;8.846;2022-10-16T06:36:03;14.40;99.90
29295;DHT22;16305;48.566;8.846;2022-10-16T06:38:30;14.30;99.90
29295;DHT22;16305;48.566;8.846;2022-10-16T06:40:56;14.30;99.90
29295;DHT22;16305;48.566;8.846;2022-10-16T06:43:21;14.30;99.90
29295;DHT22;16305;48.566;8.846;2022-10-16T06:45:54;14.30;99.90
29295;DHT22;16305;48.566;8.846;2022-10-16T06:48:20;14.30;99.90
29295;DHT22;16305;48.566;8.846;2022-10-16T06:53:24;14.40;99.90
29295;DHT22;16305;48.566;8.846;2022-10-16T06:55:50;14.50;99.90
29295;DHT22;16305;48.566;8.846;2022-10-16T06:58:16;14.60;99.90
29295;DHT22;16305;48.566;8.846;2022-10-16T07:00:41;14.70;99.90
29295;DHT22;16305;48.566;8.846;2022-10-16T07:03:07;14.70;99.90
29295;DHT22;16305;48.566;8.846;2022-10-16T07:05:46;14.70;99.90
29295;DHT22;16305;48.566;8.846;2022-10-16T07:08:11;14.80;99.90
29295;DHT22;16305;48.566;8.846;2022-10-16T07:10:37;14.80;99.90
29295;DHT22;16305;48.566;8.846;2022-10-16T07:13:03;14.90;99.90
29295;DHT22;16305;48.566;8.846;2022-10-16T07:15:28;14.90;99.90
29295;DHT22;16305;48.566;8.846;2022-10-16T07:17:54;14.90;99.90
29295;DHT22;16305;48.566;8.846;2022-10-16T07:20:19;14.90;99.90
29295;DHT22;16305;48.566;8.846;2022-10-16T07:22:45;14.90;99.90
29295;DHT22;16305;48.566;8.846;2022-10-16T07:25:11;14.90;99.90
29295;DHT22;16305;48.566;8.846;2022-10-16T07:27:37;14.90;99.90
29295;DHT22;16305;48.566;8.846;2022-10-16T07:30:03;14.90;99.90
29295;DHT22;16305;48.566;8.846;2022-10-16T07:32:29;14.90;99.90
29295;DHT22;16305;48.566;8.846;2022-10-16T07:34:55;15.00;99.90
29295;DHT22;16305;48.566;8.846;2022-10-16T07:37:21;15.00;99.90
29295;DHT22;16305;48.566;8.846;2022-10-16T07:39:47;15.10;99.90
29295;DHT22;16305;48.566;8.846;2022-10-16T07:42:13;15.10;99.90
29295;DHT22;16305;48.566;8.846;2022-10-16T07:44:38;15.10;99.90
29295;DHT22;16305;48.566;8.846;2022-10-16T07:47:05;15.20;99.90
29295;DHT22;16305;48.566;8.846;2022-10-16T07:49:31;15.20;99.90
29295;DHT22;16305;48.566;8.846;2022-10-16T07:51:56;15.10;99.90
29295;DHT22;16305;48.566;8.846;2022-10-16T07:54:22;15.20;99.90
29295;DHT22;16305;48.566;8.846;2022-10-16T07:56:47;15.20;99.90
29295;DHT22;16305;48.566;8.846;2022-10-16T07:59:13;15.20;99.90
29295;DHT22;16305;48.566;8.846;2022-10-16T08:01:38;15.20;99.90
29295;DHT22;16305;48.566;8.846;2022-10-16T08:04:05;15.30;99.90
29295;DHT22;16305;48.566;8.846;2022-10-16T08:06:35;15.40;99.90
29295;DHT22;16305;48.566;8.846;2022-10-16T08:09:01;15.40;99.90
29295;DHT22;16305;48.566;8.846;2022-10-16T08:11:26;15.50;99.90
29295;DHT22;16305;48.566;8.846;2022-10-16T08:13:52;15.60;99.90
29295;DHT22;16305;48.566;8.846;2022-10-16T08:16:17;15.60;99.90
29295;DHT22;16305;48.566;8.846;2022-10-16T08:18:43;15.60;99.90
29295;DHT22;16305;48.566;8.846;2022-10-16T08:21:20;15.60;99.90
29295;DHT22;16305;48.566;8.846;2022-10-16T08:23:46;15.60;99.90
29295;DHT22;16305;48.566;8.846;2022-10-16T08:26:12;15.70;99.90
29295;DHT22;16305;48.566;8.846;2022-10-16T08:28:38;15.70;99.90
29295;DHT22;16305;48.566;8.846;2022-10-16T08:31:09;15.70;99.90
29295;DHT22;16305;48.566;8.846;2022-10-16T08:33:35;15.70;99.90
29295;DHT22;16305;48.566;8.846;2022-10-16T08:36:01;15.80;99.90
29295;DHT22;16305;48.566;8.846;2022-10-16T08:38:26;15.70;99.90
29295;DHT22;16305;48.566;8.846;2022-10-16T08:40:54;15.80;99.90
29295;DHT22;16305;48.566;8.846;2022-10-16T08:43:31;15.80;99.90
29295;DHT22;16305;48.566;8.846;2022-10-16T08:48:46;15.80;99.90
29295;DHT22;16305;48.566;8.846;2022-10-16T08:51:29;15.90;99.90
29295;DHT22;16305;48.566;8.846;2022-10-16T08:54:03;15.90;99.90
29295;DHT22;16305;48.566;8.846;2022-10-16T08:56:29;15.90;99.90
29295;DHT22;16305;48.566;8.846;2022-10-16T08:58:58;16.00;99.90
29295;DHT22;16305;48.566;8.846;2022-10-16T09:01:34;16.00;99.90
29295;DHT22;16305;48.566;8.846;2022-10-16T09:09:21;16.20;99.90
29295;DHT22;16305;48.566;8.846;2022-10-16T09:11:51;16.20;99.90
29295;DHT22;16305;48.566;8.846;2022-10-16T09:14:49;16.30;99.90
29295;DHT22;16305;48.566;8.846;2022-10-16T09:22:44;16.70;99.90
29295;DHT22;16305;48.566;8.846;2022-10-16T09:25:15;16.70;99.90
29295;DHT22;16305;48.566;8.846;2022-10-16T09:27:44;16.80;99.90
29295;DHT22;16305;48.566;8.846;2022-10-16T09:30:16;16.80;99.90
29295;DHT22;16305;48.566;8.846;2022-10-16T09:32:43;16.90;99.90
29295;DHT22;16305;48.566;8.846;2022-10-16T09:35:15;17.10;99.90
29295;DHT22;16305;48.566;8.846;2022-10-16T09:37:43;17.40;99.90
29295;DHT22;16305;48.566;8.846;2022-10-16T09:40:36;17.60;99.90
29295;DHT22;16305;48.566;8.846;2022-10-16T09:46:00;17.80;99.90
29295;DHT22;16305;48.566;8.846;2022-10-16T09:48:37;17.80;99.90
29295;DHT22;16305;48.566;8.846;2022-10-16T09:51:06;17.90;99.90
29295;DHT22;16305;48.566;8.846;2022-10-16T09:53:43;17.90;99.90
29295;DHT22;16305;48.566;8.846;2022-10-16T09:56:11;18.10;99.90
29295;DHT22;16305;48.566;8.846;2022-10-16T09:58:42;18.10;99.90
29295;DHT22;16305;48.566;8.846;2022-10-16T10:01:14;18.10;99.90
29295;DHT22;16305;48.566;8.846;2022-10-16T10:03:42;18.00;99.90
29295;DHT22;16305;48.566;8.846;2022-10-16T10:07:14;17.90;99.90
29295;DHT22;16305;48.566;8.846;2022-10-16T10:09:29;17.80;99.90
29295;DHT22;16305;48.566;8.846;2022-10-16T10:12:01;17.90;99.90
29295;DHT22;16305;48.566;8.846;2022-10-16T10:19:59;18.20;99.90
29295;DHT22;16305;48.566;8.846;2022-10-16T10:22:41;18.30;99.90
29295;DHT22;16305;48.566;8.846;2022-10-16T10:33:32;18.80;99.90
29295;DHT22;16305;48.566;8.846;2022-10-16T10:36:30;18.90;99.90
29295;DHT22;16305;48.566;8.846;2022-10-16T10:38:59;18.90;99.90
29295;DHT22;16305;48.566;8.846;2022-10-16T10:46:58;19.40;99.90
29295;DHT22;16305;48.566;8.846;2022-10-16T10:52:06;19.70;99.90
29295;DHT22;16305;48.566;8.846;2022-10-16T10:57:24;19.90;99.90
29295;DHT22;16305;48.566;8.846;2022-10-16T11:00:21;20.20;99.90
29295;DHT22;16305;48.566;8.846;2022-10-16T11:05:42;20.50;99.90
29295;DHT22;16305;48.566;8.846;2022-10-16T11:15:59;21.30;99.90
29295;DHT22;16305;48.566;8.846;2022-10-16T11:21:10;21.80;99.90
29295;DHT22;16305;48.566;8.846;2022-10-16T11:26:20;22.80;99.90
29295;DHT22;16305;48.566;8.846;2022-10-16T11:28:51;23.00;99.90
29295;DHT22;16305;48.566;8.846;2022-10-16T11:31:39;23.20;99.90
29295;DHT22;16305;48.566;8.846;2022-10-16T11:34:28;24.20;99.90
29295;DHT22;16305;48.566;8.846;2022-10-16T11:39:45;24.80;99.90
29295;DHT22;16305;48.566;8.846;2022-10-16T11:42:18;25.10;99.90
29295;DHT22;16305;48.566;8.846;2022-10-16T11:44:51;26.20;99.90
29295;DHT22;16305;48.566;8.846;2022-10-16T11:47:39;28.00;99.90
29295;DHT22;16305;48.566;8.846;2022-10-16T11:54:03;27.10;99.90
29295;DHT22;16305;48.566;8.846;2022-10-16T11:56:01;27.50;99.90
29295;DHT22;16305;48.566;8.846;2022-10-16T12:04:03;25.80;99.90
29295;DHT22;16305;48.566;8.846;2022-10-16T12:06:36;24.90;99.90
29295;DHT22;16305;48.566;8.846;2022-10-16T12:09:03;24.40;99.90
29295;DHT22;16305;48.566;8.846;2022-10-16T12:17:01;24.50;99.90
29295;DHT22;16305;48.566;8.846;2022-10-16T12:19:30;23.80;99.90
29295;DHT22;16305;48.566;8.846;2022-10-16T12:22:00;23.50;99.90
29295;DHT22;16305;48.566;8.846;2022-10-16T12:24:37;23.80;99.90
29295;DHT22;16305;48.566;8.846;2022-10-16T12:27:05;25.00;99.90
29295;DHT22;16305;48.566;8.846;2022-10-16T12:29:39;26.10;99.90
29295;DHT22;16305;48.566;8.846;2022-10-16T12:34:54;29.50;99.90
29295;DHT22;16305;48.566;8.846;2022-10-16T12:37:33;30.60;99.90
29295;DHT22;16305;48.566;8.846;2022-10-16T12:39:59;32.10;99.90
29295;DHT22;16305;48.566;8.846;2022-10-16T12:42:36;31.90;99.90
29295;DHT22;16305;48.566;8.846;2022-10-16T12:45:12;30.70;99.90
29295;DHT22;16305;48.566;8.846;2022-10-16T12:47:48;29.30;99.90
29295;DHT22;16305;48.566;8.846;2022-10-16T12:50:34;28.20;99.90
29295;DHT22;16305;48.566;8.846;2022-10-16T12:53:02;27.20;99.90
29295;DHT22;16305;48.566;8.846;2022-10-16T12:55:35;26.70;99.90
29295;DHT22;16305;48.566;8.846;2022-10-16T12:58:46;26.60;99.90
29295;DHT22;16305;48.566;8.846;2022-10-16T13:04:10;26.30;99.90
29295;DHT22;16305;48.566;8.846;2022-10-16T13:17:10;25.30;99.90
29295;DHT22;16305;48.566;8.846;2022-10-16T13:20:06;25.50;99.90
29295;DHT22;16305;48.566;8.846;2022-10-16T13:23:03;25.30;99.90
29295;DHT22;16305;48.566;8.846;2022-10-16T13:25:51;25.20;99.90
29295;DHT22;16305;48.566;8.846;2022-10-16T13:28:28;25.30;99.90
29295;DHT22;16305;48.566;8.846;2022-10-16T13:30:58;24.70;99.90
29295;DHT22;16305;48.566;8.846;2022-10-16T13:33:33;24.30;99.90
29295;DHT22;16305;48.566;8.846;2022-10-16T13:36:01;23.90;99.90
29295;DHT22;16305;48.566;8.846;2022-10-16T13:38:35;23.70;99.90
29295;DHT22;16305;48.566;8.846;2022-10-16T13:41:03;23.60;99.90
29295;DHT22;16305;48.566;8.846;2022-10-16T13:43:41;23.50;99.90
29295;DHT22;16305;48.566;8.846;2022-10-16T13:46:19;23.50;99.90
29295;DHT22;16305;48.566;8.846;2022-10-16T13:48:55;23.30;99.90
29295;DHT22;16305;48.566;8.846;2022-10-16T13:51:21;23.40;99.90
29295;DHT22;16305;48.566;8.846;2022-10-16T13:53:46;23.20;99.90
29295;DHT22;16305;48.566;8.846;2022-10-16T13:56:19;23.40;99.90
29295;DHT22;16305;48.566;8.846;2022-10-16T13:58:45;23.30;99.90
29295;DHT22;16305;48.566;8.846;2022-10-16T14:01:43;23.20;99.90
29295;DHT22;16305;48.566;8.846;2022-10-16T14:04:11;23.70;99.90
29295;DHT22;16305;48.566;8.846;2022-10-16T14:06:41;23.40;99.90
29295;DHT22;16305;48.566;8.846;2022-10-16T14:09:22;23.60;99.90
29295;DHT22;16305;48.566;8.846;2022-10-16T14:11:50;23.50;99.90
29295;DHT22;16305;48.566;8.846;2022-10-16T14:14:17;23.50;99.90
29295;DHT22;16305;48.566;8.846;2022-10-16T14:16:43;23.70;99.90
29295;DHT22;16305;48.566;8.846;2022-10-16T14:19:22;24.00;99.90
29295;DHT22;16305;48.566;8.846;2022-10-16T14:21:50;24.00;99.90
29295;DHT22;16305;48.566;8.846;2022-10-16T14:24:45;24.40;99.90
29295;DHT22;16305;48.566;8.846;2022-10-16T14:27:33;24.90;99.90
29295;DHT22;16305;48.566;8.846;2022-10-16T14:30:18;25.10;99.90
29295;DHT22;16305;48.566;8.846;2022-10-16T14:32:56;25.00;99.90
29295;DHT22;16305;48.566;8.846;2022-10-16T14:35:25;24.60;99.90
29295;DHT22;16305;48.566;8.846;2022-10-16T14:37:53;24.90;99.90
29295;DHT22;16305;48.566;8.846;2022-10-16T14:40:19;25.30;99.90
29295;DHT22;16305;48.566;8.846;2022-10-16T14:42:46;25.30;99.90
29295;DHT22;16305;48.566;8.846;2022-10-16T14:45:11;25.40;99.90
29295;DHT22;16305;48.566;8.846;2022-10-16T14:47:52;25.60;99.90
29295;DHT22;16305;48.566;8.846;2022-10-16T14:50:18;25.80;99.90
29295;DHT22;16305;48.566;8.846;2022-10-16T14:52:44;25.40;99.90
29295;DHT22;16305;48.566;8.846;2022-10-16T14:55:10;25.50;99.90
29295;DHT22;16305;48.566;8.846;2022-10-16T14:57:38;25.30;99.90
29295;DHT22;16305;48.566;8.846;2022-10-16T15:00:13;24.30;99.90
29295;DHT22;16305;48.566;8.846;2022-10-16T15:02:40;23.50;99.90
29295;DHT22;16305;48.566;8.846;2022-10-16T15:05:18;23.50;99.90
29295;DHT22;16305;48.566;8.846;2022-10-16T15:07:45;23.70;99.90
29295;DHT22;16305;48.566;8.846;2022-10-16T15:10:12;23.70;99.90
29295;DHT22;16305;48.566;8.846;2022-10-16T15:12:37;23.50;99.90
29295;DHT22;16305;48.566;8.846;2022-10-16T15:17:57;23.60;99.90
29295;DHT22;16305;48.566;8.846;2022-10-16T15:20:27;23.70;99.90
29295;DHT22;16305;48.566;8.846;2022-10-16T15:22:53;23.70;99.90
29295;DHT22;16305;48.566;8.846;2022-10-16T15:25:33;23.70;99.90
29295;DHT22;16305;48.566;8.846;2022-10-16T15:28:00;23.60;99.90
29295;DHT22;16305;48.566;8.846;2022-10-16T15:30:27;23.70;99.90
29295;DHT22;16305;48.566;8.846;2022-10-16T15:32:52;23.50;99.90
29295;DHT22;16305;48.566;8.846;2022-10-16T15:35:18;23.40;99.90
29295;DHT22;16305;48.566;8.846;2022-10-16T15:37:44;23.30;99.90
29295;DHT22;16305;48.566;8.846;2022-10-16T15:40:11;23.20;99.90
29295;DHT22;16305;48.566;8.846;2022-10-16T15:42:36;23.10;99.90
29295;DHT22;16305;48.566;8.846;2022-10-16T15:45:02;23.00;99.90
29295;DHT22;16305;48.566;8.846;2022-10-16T15:47:29;22.90;99.90
29295;DHT22;16305;48.566;8.846;2022-10-16T15:49:55;22.70;99.90
29295;DHT22;16305;48.566;8.846;2022-10-16T15:52:20;22.30;99.90
29295;DHT22;16305;48.566;8.846;2022-10-16T15:54:46;21.80;99.90
29295;DHT22;16305;48.566;8.846;2022-10-16T15:57:11;21.50;99.90
29295;DHT22;16305;48.566;8.846;2022-10-16T15:59:37;21.40;99.90
29295;DHT22;16305;48.566;8.846;2022-10-16T16:02:02;20.90;99.90
29295;DHT22;16305;48.566;8.846;2022-10-16T16:04:31;20.60;99.90
29295;DHT22;16305;48.566;8.846;2022-10-16T16:06:57;20.40;99.90
29295;DHT22;16305;48.566;8.846;2022-10-16T16:09:23;20.50;99.90
29295;DHT22;16305;48.566;8.846;2022-10-16T16:11:49;20.50;99.90
29295;DHT22;16305;48.566;8.846;2022-10-16T16:14:16;20.30;99.90
29295;DHT22;16305;48.566;8.846;2022-10-16T16:16:42;20.30;99.90
29295;DHT22;16305;48.566;8.846;2022-10-16T16:19:08;20.20;99.90
29295;DHT22;16305;48.566;8.846;2022-10-16T16:21:34;20.00;99.90
29295;DHT22;16305;48.566;8.846;2022-10-16T16:24:00;20.10;99.90
29295;DHT22;16305;48.566;8.846;2022-10-16T16:26:27;20.00;99.90
29295;DHT22;16305;48.566;8.846;2022-10-16T16:28:54;19.70;99.90
29295;DHT22;16305;48.566;8.846;2022-10-16T16:31:24;19.50;99.90
29295;DHT22;16305;48.566;8.846;2022-10-16T16:33:50;19.50;99.90
29295;DHT22;16305;48.566;8.846;2022-10-16T16:36:17;19.50;99.90
29295;DHT22;16305;48.566;8.846;2022-10-16T16:38:43;19.60;99.90
29295;DHT22;16305;48.566;8.846;2022-10-16T16:41:20;19.20;99.90
29295;DHT22;16305;48.566;8.846;2022-10-16T16:43:47;19.00;99.90
29295;DHT22;16305;48.566;8.846;2022-10-16T16:46:14;19.00;99.90
29295;DHT22;16305;48.566;8.846;2022-10-16T16:48:40;19.00;99.90
29295;DHT22;16305;48.566;8.846;2022-10-16T16:51:08;19.10;99.90
29295;DHT22;16305;48.566;8.846;2022-10-16T16:53:35;19.20;99.90
29295;DHT22;16305;48.566;8.846;2022-10-16T16:56:05;19.30;99.90
29295;DHT22;16305;48.566;8.846;2022-10-16T16:58:31;19.40;99.90
29295;DHT22;16305;48.566;8.846;2022-10-16T17:00:58;19.40;99.90
29295;DHT22;16305;48.566;8.846;2022-10-16T17:03:32;19.40;99.90
29295;DHT22;16305;48.566;8.846;2022-10-16T17:06:03;19.60;99.90
29295;DHT22;16305;48.566;8.846;2022-10-16T17:08:29;19.10;99.90
29295;DHT22;16305;48.566;8.846;2022-10-16T17:10:56;18.80;99.90
29295;DHT22;16305;48.566;8.846;2022-10-16T17:13:23;18.60;99.90
29295;DHT22;16305;48.566;8.846;2022-10-16T17:15:50;18.60;99.90
29295;DHT22;16305;48.566;8.846;2022-10-16T17:18:16;18.40;99.90
29295;DHT22;16305;48.566;8.846;2022-10-16T17:20:42;18.20;99.90
29295;DHT22;16305;48.566;8.846;2022-10-16T17:23:09;17.90;99.90
29295;DHT22;16305;48.566;8.846;2022-10-16T17:25:39;17.70;99.90
29295;DHT22;16305;48.566;8.846;2022-10-16T17:28:06;17.70;99.90
29295;DHT22;16305;48.566;8.846;2022-10-16T17:30:32;17.50;99.90
29295;DHT22;16305;48.566;8.846;2022-10-16T17:33:01;17.50;99.90
29295;DHT22;16305;48.566;8.846;2022-10-16T17:35:27;17.50;99.90
29295;DHT22;16305;48.566;8.846;2022-10-16T17:37:53;17.40;99.90
29295;DHT22;16305;48.566;8.846;2022-10-16T17:40:19;17.40;99.90